Time;durP1;ratioP1;P1;durP2;ratioP2;P2;SDS_P1;SDS_P2;PMS_P1;PMS_P2;Temp;Humidity;BMP_temperature;BMP_pressure;BME280_temperature;BME280_humidity;BME280_pressure;Samples;Min_cycle;Max_cycle;Signal;HPM_P1;HPM_P2
2023/09/18 00:00:50;;;;;;;4.03;2.60;;;26.60;54.20;;;;;;5081689;27;89282;-53
2023/09/18 00:03:20;;;;;;;4.10;2.70;;;26.60;54.20;;;;;;5080836;27;88789;-53
2023/09/18 00:05:48;;;;;;;2.77;2.50;;;26.60;54.20;;;;;;5082441;27;88609;-53
2023/09/18 00:08:17;;;;;;;5.90;2.67;;;26.60;54.20;;;;;;5075437;27;89229;-53
2023/09/18 00:10:47;;;;;;;3.53;2.90;;;26.60;54.70;;;;;;5081004;27;89051;-53
2023/09/18 00:13:16;;;;;;;3.50;2.90;;;26.60;54.20;;;;;;5079532;27;88906;-53
2023/09/18 00:15:47;;;;;;;3.27;2.67;;;26.60;54.20;;;;;;5082421;27;89674;-53
2023/09/18 00:18:17;;;;;;;3.93;3.00;;;26.60;54.20;;;;;;5081077;27;89164;-53
2023/09/18 00:20:47;;;;;;;4.40;2.17;;;26.60;54.20;;;;;;5079296;27;88863;-53
2023/09/18 00:23:16;;;;;;;4.77;2.97;;;26.70;54.30;;;;;;5080050;27;89690;-52
2023/09/18 00:25:44;;;;;;;3.07;2.70;;;26.60;54.80;;;;;;5077915;27;88366;-54
2023/09/18 00:28:12;;;;;;;4.53;2.50;;;26.60;54.20;;;;;;5081765;27;88819;-53
2023/09/18 00:30:44;;;;;;;3.17;2.23;;;26.60;54.20;;;;;;5077565;27;87498;-53
2023/09/18 00:33:12;;;;;;;3.07;2.37;;;26.60;54.20;;;;;;5080428;27;87717;-53
2023/09/18 00:35:42;;;;;;;3.57;2.67;;;26.60;54.20;;;;;;5069571;27;90139;-53
2023/09/18 00:38:10;;;;;;;2.27;2.07;;;26.60;54.20;;;;;;5078988;27;89038;-53
2023/09/18 00:40:38;;;;;;;3.77;2.40;;;26.60;54.80;;;;;;5082043;27;87750;-53
2023/09/18 00:43:07;;;;;;;3.43;2.00;;;26.60;54.10;;;;;;5081532;27;88047;-53
2023/09/18 00:45:35;;;;;;;3.00;2.43;;;26.60;54.10;;;;;;5081133;27;88544;-53
2023/09/18 00:48:03;;;;;;;2.87;2.00;;;26.60;54.10;;;;;;5080737;27;90167;-53
2023/09/18 00:50:32;;;;;;;3.70;2.30;;;26.60;54.10;;;;;;5067742;27;89985;-53
2023/09/18 00:53:01;;;;;;;2.37;1.83;;;26.60;54.10;;;;;;5076559;27;87671;-53
2023/09/18 00:55:29;;;;;;;2.70;2.43;;;26.60;54.10;;;;;;5081298;27;89786;-53
2023/09/18 00:57:58;;;;;;;2.90;2.10;;;26.60;54.10;;;;;;5072021;27;89324;-53
2023/09/18 01:00:26;;;;;;;3.90;2.50;;;26.60;54.10;;;;;;5075157;27;88943;-53
2023/09/18 01:02:54;;;;;;;2.80;2.03;;;26.60;54.10;;;;;;5070531;27;87563;-53
2023/09/18 01:05:22;;;;;;;3.87;2.20;;;26.60;54.70;;;;;;5080330;27;89551;-53
2023/09/18 01:07:51;;;;;;;3.37;2.30;;;26.60;54.10;;;;;;5081762;27;88625;-53
2023/09/18 01:10:22;;;;;;;2.90;2.30;;;26.60;54.10;;;;;;5081258;27;88980;-53
2023/09/18 01:12:54;;;;;;;2.13;1.93;;;26.60;54.10;;;;;;5070786;27;89142;-53
2023/09/18 01:15:24;;;;;;;2.97;2.00;;;26.60;54.10;;;;;;5077130;27;89702;-53
2023/09/18 01:17:52;;;;;;;5.37;2.13;;;26.60;54.70;;;;;;5081257;27;89215;-54
2023/09/18 01:20:20;;;;;;;2.17;1.97;;;26.60;54.10;;;;;;5080653;27;89078;-54
2023/09/18 01:22:50;;;;;;;2.10;1.80;;;26.60;54.80;;;;;;5080967;27;87613;-53
2023/09/18 01:25:18;;;;;;;5.20;2.27;;;26.60;54.10;;;;;;5073571;27;89520;-53
2023/09/18 01:27:46;;;;;;;3.17;2.37;;;26.50;54.00;;;;;;5077575;27;89177;-54
2023/09/18 01:30:15;;;;;;;3.90;2.13;;;26.60;54.10;;;;;;5079672;27;88887;-54
2023/09/18 01:32:43;;;;;;;2.47;1.80;;;26.60;54.10;;;;;;5080795;27;88050;-53
2023/09/18 01:35:11;;;;;;;2.10;1.60;;;26.50;54.10;;;;;;5078864;27;89544;-53
2023/09/18 01:37:40;;;;;;;3.23;2.20;;;26.60;54.10;;;;;;5083759;27;90168;-53
2023/09/18 01:40:11;;;;;;;2.80;2.00;;;26.50;54.10;;;;;;5081246;27;89663;-54
2023/09/18 01:42:39;;;;;;;3.37;2.43;;;26.60;54.20;;;;;;5080284;27;87896;-53
2023/09/18 01:45:08;;;;;;;2.03;1.70;;;26.50;54.10;;;;;;5080725;27;89445;-54
2023/09/18 01:47:36;;;;;;;3.13;1.97;;;26.50;54.10;;;;;;5081931;27;89112;-54
2023/09/18 01:50:06;;;;;;;2.53;1.97;;;26.50;54.10;;;;;;5081576;27;88785;-53
2023/09/18 01:52:34;;;;;;;3.23;1.90;;;26.60;54.20;;;;;;5068845;27;87650;-53
2023/09/18 01:55:04;;;;;;;3.03;1.70;;;26.50;54.10;;;;;;5069942;27;89959;-53
2023/09/18 01:57:33;;;;;;;2.10;1.90;;;26.50;54.10;;;;;;5081565;27;89150;-53
2023/09/18 02:00:03;;;;;;;2.80;1.67;;;26.50;54.10;;;;;;5081694;27;88776;-53
2023/09/18 02:02:31;;;;;;;2.57;1.90;;;26.50;54.10;;;;;;5061323;27;87918;-53
2023/09/18 02:05:20;;;;;;;2.53;2.00;;;26.50;54.10;;;;;;5061499;27;91428;-53
2023/09/18 02:07:48;;;;;;;2.87;1.97;;;26.50;54.10;;;;;;5067598;27;89183;-53
2023/09/18 02:10:16;;;;;;;2.63;1.73;;;26.50;54.10;;;;;;5080407;27;88995;-53
2023/09/18 02:12:46;;;;;;;1.77;1.50;;;26.50;54.10;;;;;;5078954;27;87687;-53
2023/09/18 02:15:16;;;;;;;3.37;1.77;;;26.50;54.80;;;;;;5080352;27;88439;-54
2023/09/18 02:17:45;;;;;;;2.53;1.60;;;26.50;54.10;;;;;;5074115;27;89806;-53
2023/09/18 02:20:13;;;;;;;2.27;1.60;;;26.50;54.10;;;;;;5077021;27;88790;-54
2023/09/18 02:22:41;;;;;;;2.03;1.83;;;26.50;54.10;;;;;;5078311;27;87692;-53
2023/09/18 02:25:09;;;;;;;1.47;1.33;;;26.50;54.10;;;;;;5077915;27;89658;-53
2023/09/18 02:27:38;;;;;;;4.40;1.97;;;26.50;54.10;;;;;;5079079;27;90046;-53
2023/09/18 02:30:09;;;;;;;2.07;1.53;;;26.50;54.10;;;;;;5075180;27;88730;-53
2023/09/18 02:32:38;;;;;;;2.70;2.10;;;26.50;54.10;;;;;;5079184;27;87592;-53
2023/09/18 02:35:08;;;;;;;2.60;2.07;;;26.50;54.10;;;;;;5080475;27;89785;-53
2023/09/18 02:37:36;;;;;;;2.53;1.70;;;26.60;54.10;;;;;;5079176;27;89055;-54
2023/09/18 02:40:07;;;;;;;2.60;1.40;;;26.50;54.10;;;;;;5078916;27;88694;-53
2023/09/18 02:42:36;;;;;;;2.77;1.90;;;26.60;54.20;;;;;;5079902;27;87434;-53
2023/09/18 02:45:05;;;;;;;2.10;1.90;;;26.50;54.10;;;;;;5073737;27;89725;-53
2023/09/18 02:47:34;;;;;;;3.90;2.27;;;26.50;54.10;;;;;;5077310;27;89137;-53
2023/09/18 02:50:04;;;;;;;3.40;2.57;;;26.50;54.10;;;;;;5071270;27;88883;-52
2023/09/18 02:52:32;;;;;;;4.47;2.70;;;26.50;54.10;;;;;;5076834;27;88033;-52
2023/09/18 02:55:00;;;;;;;3.37;2.23;;;26.50;54.10;;;;;;5076443;27;89384;-53
2023/09/18 02:57:28;;;;;;;2.87;2.43;;;26.50;54.10;;;;;;5075445;27;89176;-53
2023/09/18 02:59:56;;;;;;;2.83;1.93;;;26.50;54.10;;;;;;5076108;27;87615;-53
2023/09/18 03:02:25;;;;;;;3.70;2.57;;;26.50;54.10;;;;;;5073801;27;87513;-53
2023/09/18 03:04:55;;;;;;;4.93;3.43;;;26.50;54.10;;;;;;5076161;27;89852;-53
2023/09/18 03:07:23;;;;;;;4.03;2.50;;;26.50;54.10;;;;;;5073213;27;89172;-53
2023/09/18 03:09:51;;;;;;;7.17;3.57;;;26.50;54.10;;;;;;5075914;27;89001;-53
2023/09/18 03:12:19;;;;;;;4.33;3.53;;;26.50;54.10;;;;;;5076002;27;87684;-53
2023/09/18 03:14:47;;;;;;;5.93;3.73;;;26.50;54.80;;;;;;5075700;27;88212;-52
2023/09/18 03:17:16;;;;;;;5.20;3.57;;;26.50;54.10;;;;;;5075922;27;89959;-53
2023/09/18 03:19:44;;;;;;;6.07;3.80;;;26.50;54.20;;;;;;5065668;27;89796;-53
2023/09/18 03:22:14;;;;;;;4.70;3.47;;;26.50;54.20;;;;;;5060466;27;87599;-53
2023/09/18 03:24:42;;;;;;;5.83;4.03;;;26.50;54.20;;;;;;5068931;27;89639;-52
2023/09/18 03:27:10;;;;;;;5.80;3.80;;;26.50;54.80;;;;;;5074531;27;89203;-53
2023/09/18 03:29:38;;;;;;;7.10;4.37;;;26.50;54.80;;;;;;5057737;27;88927;-52
2023/09/18 03:32:07;;;;;;;7.93;4.57;;;26.50;54.20;;;;;;5057800;27;87571;-53
2023/09/18 03:34:35;;;;;;;5.03;3.93;;;26.50;54.20;;;;;;5076649;27;90111;-53
2023/09/18 03:37:03;;;;;;;8.73;4.90;;;26.50;54.20;;;;;;5078446;27;88940;-52
2023/09/18 03:39:33;;;;;;;6.30;4.10;;;26.50;54.20;;;;;;5069389;27;88864;-53
2023/09/18 03:42:02;;;;;;;5.93;4.23;;;26.40;54.10;;;;;;5080801;27;88106;-53
2023/09/18 03:44:30;;;;;;;7.93;4.60;;;26.40;54.20;;;;;;5078286;27;89412;-53
2023/09/18 03:46:59;;;;;;;6.20;4.10;;;26.40;54.30;;;;;;5077148;27;89184;-52
2023/09/18 03:49:28;;;;;;;8.23;4.37;;;26.40;54.20;;;;;;5080082;27;88882;-53
2023/09/18 03:51:57;;;;;;;7.37;4.77;;;26.50;54.20;;;;;;5079931;27;87614;-53
2023/09/18 03:54:25;;;;;;;9.07;4.37;;;26.50;54.20;;;;;;5080055;27;89414;-53
2023/09/18 03:56:54;;;;;;;6.87;4.23;;;26.40;54.20;;;;;;5068665;27;89005;-52
2023/09/18 03:59:23;;;;;;;7.50;4.90;;;26.50;54.20;;;;;;5060232;27;88781;-53
2023/09/18 04:01:52;;;;;;;6.73;4.80;;;26.50;54.20;;;;;;5060559;27;87769;-53
2023/09/18 04:04:20;;;;;;;7.73;4.40;;;26.50;54.20;;;;;;5059925;27;89649;-53
2023/09/18 04:06:49;;;;;;;7.10;3.70;;;26.50;54.20;;;;;;5063787;27;90119;-53
2023/09/18 04:09:17;;;;;;;5.90;4.13;;;26.50;54.10;;;;;;5070172;27;89854;-53
2023/09/18 04:11:46;;;;;;;5.80;4.13;;;26.50;54.10;;;;;;5063731;27;87574;-52
2023/09/18 04:14:15;;;;;;;8.57;4.40;;;26.50;54.20;;;;;;5073432;27;89665;-53
2023/09/18 04:16:44;;;;;;;8.37;3.97;;;26.40;54.10;;;;;;5077848;27;89346;-52
2023/09/18 04:19:13;;;;;;;6.23;4.20;;;26.50;54.10;;;;;;5064578;27;88885;-52
2023/09/18 04:21:41;;;;;;;7.80;4.37;;;26.50;54.10;;;;;;5075198;27;89107;-52
2023/09/18 04:24:09;;;;;;;7.23;3.67;;;26.50;54.10;;;;;;5065602;27;89595;-52
2023/09/18 04:26:39;;;;;;;5.70;3.67;;;26.40;54.10;;;;;;5083117;27;89078;-53
2023/09/18 04:29:07;;;;;;;5.13;3.73;;;26.50;54.20;;;;;;5072003;27;88729;-53
2023/09/18 04:31:37;;;;;;;4.80;3.63;;;26.50;54.90;;;;;;5063247;27;87949;-52
2023/09/18 04:34:06;;;;;;;6.13;3.73;;;26.50;54.30;;;;;;5062623;27;88668;-55
2023/09/18 04:36:36;;;;;;;6.10;3.83;;;26.50;54.20;;;;;;5080033;27;88905;-53
2023/09/18 04:39:05;;;;;;;5.73;3.93;;;26.50;54.30;;;;;;5068166;27;88483;-53
2023/09/18 04:41:33;;;;;;;6.37;4.40;;;26.50;54.30;;;;;;5064417;27;87491;-56
2023/09/18 04:44:02;;;;;;;8.83;4.00;;;26.50;54.30;;;;;;5061506;27;89832;-55
2023/09/18 04:46:30;;;;;;;5.07;3.53;;;26.50;54.30;;;;;;5077962;27;90624;-55
2023/09/18 04:49:01;;;;;;;7.17;3.63;;;26.50;54.30;;;;;;5073796;27;88603;-55
2023/09/18 04:51:29;;;;;;;6.40;3.17;;;26.50;54.40;;;;;;5061348;27;87459;-55
2023/09/18 04:53:57;;;;;;;7.20;3.30;;;26.50;54.40;;;;;;5062360;27;88497;-55
2023/09/18 04:56:26;;;;;;;5.67;3.43;;;26.60;54.40;;;;;;5061144;27;89695;-55
2023/09/18 04:58:54;;;;;;;7.27;4.47;;;26.50;54.40;;;;;;5061943;27;90036;-55
2023/09/18 05:01:22;;;;;;;5.90;3.13;;;26.60;54.40;;;;;;5067679;27;87499;-55
2023/09/18 05:03:51;;;;;;;4.73;3.10;;;26.60;54.50;;;;;;5081606;27;89745;-55
2023/09/18 05:06:21;;;;;;;5.23;3.50;;;26.50;54.40;;;;;;5081617;27;89174;-55
2023/09/18 05:08:49;;;;;;;4.77;3.47;;;26.50;54.40;;;;;;5081176;27;89026;-55
2023/09/18 05:11:18;;;;;;;3.67;2.93;;;26.50;54.50;;;;;;5081752;27;87455;-55
2023/09/18 05:13:46;;;;;;;3.87;2.83;;;26.60;54.60;;;;;;5082411;27;89710;-55
2023/09/18 05:16:15;;;;;;;3.67;3.00;;;26.50;54.50;;;;;;5081304;27;88935;-55
2023/09/18 05:18:43;;;;;;;5.13;3.50;;;26.50;54.50;;;;;;5082581;27;88833;-55
2023/09/18 05:21:11;;;;;;;5.33;3.60;;;26.50;54.60;;;;;;5082028;27;87742;-55
2023/09/18 05:23:41;;;;;;;5.83;3.43;;;26.50;54.60;;;;;;5082724;27;89488;-56
2023/09/18 05:26:09;;;;;;;6.80;3.47;;;26.50;54.60;;;;;;5082110;27;89335;-55
2023/09/18 05:28:37;;;;;;;4.40;2.70;;;26.60;54.60;;;;;;5081363;27;88946;-55
2023/09/18 05:31:05;;;;;;;3.37;2.47;;;26.50;54.50;;;;;;5082192;27;87447;-55
2023/09/18 05:33:34;;;;;;;3.70;2.80;;;26.50;54.50;;;;;;5082185;27;89775;-56
2023/09/18 05:36:03;;;;;;;6.83;2.90;;;26.50;54.50;;;;;;5081814;27;89729;-56
2023/09/18 05:38:31;;;;;;;2.93;2.60;;;26.50;54.50;;;;;;5082037;27;88852;-56
2023/09/18 05:41:01;;;;;;;4.67;3.10;;;26.50;54.50;;;;;;5081388;27;87440;-55
2023/09/18 05:43:30;;;;;;;4.83;3.53;;;26.60;54.60;;;;;;5081375;27;89356;-55
2023/09/18 05:45:59;;;;;;;5.17;3.03;;;26.50;54.40;;;;;;5081386;27;89765;-55
2023/09/18 05:48:27;;;;;;;5.03;2.97;;;26.50;54.40;;;;;;5081847;27;89797;-56
2023/09/18 05:50:55;;;;;;;5.57;3.20;;;26.50;54.40;;;;;;5081786;27;87249;-56
2023/09/18 05:53:23;;;;;;;4.03;2.83;;;26.50;54.50;;;;;;5081415;27;89919;-56
2023/09/18 05:55:52;;;;;;;6.73;3.20;;;26.50;54.50;;;;;;5078420;27;89263;-56
2023/09/18 05:58:24;;;;;;;4.70;2.90;;;26.50;54.50;;;;;;5081016;27;88921;-55
2023/09/18 06:00:52;;;;;;;3.03;2.67;;;26.50;54.50;;;;;;5081650;27;87454;-55
2023/09/18 06:03:21;;;;;;;3.50;2.60;;;26.50;54.50;;;;;;5081562;27;89918;-55
2023/09/18 06:05:50;;;;;;;2.77;2.17;;;26.50;54.50;;;;;;5080915;27;89147;-55
2023/09/18 06:08:18;;;;;;;5.00;2.90;;;26.50;54.40;;;;;;5081185;27;89057;-56
2023/09/18 06:10:47;;;;;;;5.70;2.80;;;26.50;54.40;;;;;;5081276;27;87895;-55
2023/09/18 06:13:15;;;;;;;6.33;2.40;;;26.50;55.10;;;;;;5080665;27;89620;-55
2023/09/18 06:15:44;;;;;;;4.27;3.00;;;26.50;54.50;;;;;;5081187;27;89183;-55
2023/09/18 06:18:13;;;;;;;5.17;2.70;;;26.50;55.10;;;;;;5081239;27;88909;-56
2023/09/18 06:20:43;;;;;;;5.30;2.43;;;26.50;54.40;;;;;;5080752;27;87620;-56
2023/09/18 06:23:12;;;;;;;3.60;2.83;;;26.50;54.40;;;;;;5080249;27;89804;-55
2023/09/18 06:25:41;;;;;;;3.30;2.53;;;26.50;54.40;;;;;;5076716;27;88928;-56
2023/09/18 06:28:09;;;;;;;4.33;2.17;;;26.50;55.10;;;;;;5079992;27;87710;-55
2023/09/18 06:30:37;;;;;;;2.87;2.23;;;26.50;54.40;;;;;;5080964;27;87182;-55
2023/09/18 06:33:07;;;;;;;4.00;2.70;;;26.50;54.50;;;;;;5080514;27;89709;-55
2023/09/18 06:35:35;;;;;;;3.33;2.10;;;26.50;54.50;;;;;;5080320;27;90173;-55
2023/09/18 06:38:06;;;;;;;2.93;2.07;;;26.50;54.50;;;;;;5080778;27;89859;-55
2023/09/18 06:40:34;;;;;;;3.70;2.00;;;26.50;54.50;;;;;;5081398;27;87479;-57
2023/09/18 06:43:03;;;;;;;2.47;1.93;;;26.50;54.50;;;;;;5081136;27;90364;-56
2023/09/18 06:45:33;;;;;;;1.73;1.47;;;26.50;54.50;;;;;;5080887;27;89528;-55
2023/09/18 06:48:01;;;;;;;4.43;2.67;;;26.50;54.50;;;;;;5080431;27;88916;-55
2023/09/18 06:50:31;;;;;;;3.60;2.17;;;26.50;54.50;;;;;;5080422;27;87191;-55
2023/09/18 06:52:59;;;;;;;4.00;2.80;;;26.50;54.50;;;;;;5080312;27;88670;-55
2023/09/18 06:55:27;;;;;;;3.37;2.17;;;26.50;54.50;;;;;;5081304;27;88865;-55
2023/09/18 06:57:56;;;;;;;2.80;2.37;;;26.50;54.50;;;;;;5080811;27;88882;-55
2023/09/18 07:00:25;;;;;;;2.93;1.97;;;26.50;54.40;;;;;;5080085;27;87949;-55
2023/09/18 07:02:53;;;;;;;2.97;1.80;;;26.50;54.50;;;;;;5080420;27;89637;-55
2023/09/18 07:05:21;;;;;;;3.27;2.07;;;26.50;54.50;;;;;;5079821;27;88914;-55
2023/09/18 07:07:51;;;;;;;2.93;2.03;;;26.50;54.40;;;;;;5080494;27;88976;-55
2023/09/18 07:10:19;;;;;;;3.07;1.90;;;26.50;54.40;;;;;;5084714;27;87372;-55
2023/09/18 07:12:48;;;;;;;2.20;1.73;;;26.50;54.40;;;;;;5083806;27;89578;-55
2023/09/18 07:15:17;;;;;;;2.83;2.00;;;26.50;54.40;;;;;;5083681;27;89377;-55
2023/09/18 07:17:45;;;;;;;3.13;1.97;;;26.50;54.40;;;;;;5083940;27;87763;-55
2023/09/18 07:20:14;;;;;;;4.40;2.30;;;26.50;54.30;;;;;;5084143;27;87514;-55
2023/09/18 07:22:47;;;;;;;2.47;1.97;;;26.50;54.30;;;;;;5084119;27;89578;-55
2023/09/18 07:25:17;;;;;;;3.50;1.93;;;26.60;54.40;;;;;;5084051;27;90070;-55
2023/09/18 07:27:45;;;;;;;2.23;1.37;;;26.60;54.30;;;;;;5084079;27;89300;-55
2023/09/18 07:30:15;;;;;;;2.03;1.83;;;26.60;54.30;;;;;;5084420;27;87628;-56
2023/09/18 07:32:44;;;;;;;2.43;2.03;;;26.60;54.30;;;;;;5084560;27;89694;-55
2023/09/18 07:35:13;;;;;;;3.27;1.87;;;26.60;54.30;;;;;;5083328;27;89349;-56
2023/09/18 07:37:44;;;;;;;2.23;1.67;;;26.60;54.30;;;;;;5083674;27;88883;-56
2023/09/18 07:40:12;;;;;;;1.63;1.53;;;26.60;54.30;;;;;;5083178;27;87539;-55
2023/09/18 07:42:43;;;;;;;2.43;1.63;;;26.60;54.30;;;;;;5084357;27;89619;-56
2023/09/18 07:45:12;;;;;;;1.87;1.43;;;26.60;54.30;;;;;;5082841;27;88914;-55
2023/09/18 07:47:40;;;;;;;1.63;1.53;;;26.60;54.30;;;;;;5083548;27;89052;-55
2023/09/18 07:50:09;;;;;;;3.40;1.40;;;26.60;54.30;;;;;;5083313;27;87864;-55
2023/09/18 07:52:37;;;;;;;2.43;1.80;;;26.60;54.30;;;;;;5082691;27;88423;-55
2023/09/18 07:55:06;;;;;;;3.97;1.90;;;26.60;54.20;;;;;;5083144;27;89177;-55
2023/09/18 07:57:35;;;;;;;2.80;2.03;;;26.60;54.30;;;;;;5083352;27;88731;-55
2023/09/18 08:00:09;;;;;;;4.63;1.67;;;26.60;54.20;;;;;;5083533;27;87541;-55
2023/09/18 08:02:38;;;;;;;2.40;1.57;;;26.60;54.30;;;;;;5083466;27;89612;-55
2023/09/18 08:05:08;;;;;;;2.43;1.67;;;26.70;54.40;;;;;;5082743;27;89208;-56
2023/09/18 08:07:37;;;;;;;1.40;1.30;;;26.60;54.20;;;;;;5083045;27;88918;-55
2023/09/18 08:10:08;;;;;;;3.13;1.80;;;26.60;54.20;;;;;;5083729;27;87410;-56
2023/09/18 08:12:38;;;;;;;2.50;1.77;;;26.60;54.20;;;;;;5082857;27;89564;-55
2023/09/18 08:15:09;;;;;;;1.87;1.30;;;26.60;54.20;;;;;;5082177;27;90373;-55
2023/09/18 08:17:40;;;;;;;1.77;1.63;;;26.60;54.20;;;;;;5079855;27;89940;-55
2023/09/18 08:20:12;;;;;;;1.27;1.20;;;26.70;54.30;;;;;;5082627;27;87604;-56
2023/09/18 08:22:41;;;;;;;1.40;1.30;;;26.70;54.30;;;;;;5081990;27;89716;-56
2023/09/18 08:25:10;;;;;;;1.87;1.37;;;26.60;54.20;;;;;;5082715;27;89395;-55
2023/09/18 08:27:41;;;;;;;2.70;1.40;;;26.70;54.30;;;;;;5082596;27;88967;-56
2023/09/18 08:30:12;;;;;;;1.97;1.53;;;26.70;54.20;;;;;;5082812;27;87537;-55
2023/09/18 08:32:40;;;;;;;1.63;1.40;;;26.70;54.20;;;;;;5083104;27;89744;-55
2023/09/18 08:35:09;;;;;;;2.43;1.23;;;26.70;54.20;;;;;;5082738;27;87417;-55
2023/09/18 08:37:37;;;;;;;2.67;1.60;;;26.70;54.30;;;;;;5082573;27;88885;-56
2023/09/18 08:40:09;;;;;;;2.50;1.17;;;26.70;54.30;;;;;;5082126;27;87998;-56
2023/09/18 08:42:39;;;;;;;2.23;1.10;;;26.70;54.30;;;;;;5082160;27;89583;-55
2023/09/18 08:45:11;;;;;;;1.70;1.43;;;26.70;54.30;;;;;;5082536;27;89270;-55
2023/09/18 08:47:40;;;;;;;2.50;1.27;;;26.70;54.30;;;;;;5082590;27;88891;-55
2023/09/18 08:50:09;;;;;;;2.53;1.63;;;26.70;54.30;;;;;;5082704;27;87615;-56
2023/09/18 08:52:38;;;;;;;1.70;1.10;;;26.70;54.40;;;;;;5081761;27;89663;-55
2023/09/18 08:55:07;;;;;;;1.97;1.00;;;26.70;54.30;;;;;;5082068;27;89030;-55
2023/09/18 08:57:37;;;;;;;1.40;1.30;;;26.70;54.40;;;;;;5082581;27;88509;-55
2023/09/18 09:00:08;;;;;;;1.07;0.97;;;26.70;54.40;;;;;;5081699;27;87625;-56
2023/09/18 09:02:38;;;;;;;1.80;1.57;;;26.70;54.40;;;;;;5081910;27;92500;-55
2023/09/18 09:05:07;;;;;;;0.90;0.90;;;26.70;54.40;;;;;;5081879;27;89574;-55
2023/09/18 09:07:35;;;;;;;2.00;0.80;;;26.70;54.40;;;;;;5081952;27;89873;-55
2023/09/18 09:10:04;;;;;;;1.20;1.10;;;26.70;54.40;;;;;;5081756;27;87811;-56
2023/09/18 09:12:48;;;;;;;1.97;1.23;;;26.70;54.40;;;;;;5081715;27;89311;-56
2023/09/18 09:15:16;;;;;;;0.90;0.80;;;26.70;54.40;;;;;;5081416;27;88924;-55
2023/09/18 09:17:46;;;;;;;1.03;0.93;;;26.70;54.30;;;;;;5078445;27;87988;-55
2023/09/18 09:20:15;;;;;;;2.43;1.17;;;26.70;54.40;;;;;;5081952;27;88099;-55
2023/09/18 09:22:44;;;;;;;1.80;1.00;;;26.70;54.40;;;;;;5082589;27;89722;-55
2023/09/18 09:25:26;;;;;;;1.23;1.00;;;26.70;54.30;;;;;;5082926;27;90143;-55
2023/09/18 09:27:55;;;;;;;0.70;0.70;;;26.70;54.40;;;;;;5082410;27;89082;-55
2023/09/18 09:30:24;;;;;;;1.33;1.07;;;26.80;54.30;;;;;;5082299;27;87793;-55
2023/09/18 09:32:55;;;;;;;1.43;0.93;;;26.70;54.30;;;;;;5081194;27;89789;-55
2023/09/18 09:35:26;;;;;;;1.10;1.00;;;26.70;54.30;;;;;;5082715;27;89161;-55
2023/09/18 09:37:57;;;;;;;1.43;1.20;;;26.70;54.30;;;;;;5081276;27;88888;-57
2023/09/18 09:40:25;;;;;;;0.97;0.90;;;26.80;54.30;;;;;;5081096;27;88098;-56
2023/09/18 09:43:00;;;;;;;0.70;0.67;;;26.80;54.30;;;;;;5081381;27;89739;-55
2023/09/18 09:45:29;;;;;;;2.10;1.10;;;26.80;54.30;;;;;;5081453;27;88840;-55
2023/09/18 09:48:01;;;;;;;0.93;0.80;;;26.80;54.30;;;;;;5082074;27;88854;-56
2023/09/18 09:50:29;;;;;;;1.33;0.90;;;26.80;54.30;;;;;;5082210;27;87287;-55
2023/09/18 09:52:58;;;;;;;2.27;0.90;;;26.80;54.30;;;;;;5080820;27;89623;-55
2023/09/18 09:55:28;;;;;;;2.27;0.90;;;26.80;54.30;;;;;;5080773;27;89958;-55
2023/09/18 09:57:59;;;;;;;1.00;0.80;;;26.80;54.20;;;;;;5081396;27;89531;-55
2023/09/18 10:00:30;;;;;;;1.00;0.90;;;26.80;54.20;;;;;;5081795;27;87401;-55
2023/09/18 10:03:02;;;;;;;1.50;0.80;;;26.80;54.20;;;;;;5081207;27;89691;-55
2023/09/18 10:05:33;;;;;;;1.23;0.87;;;26.80;54.20;;;;;;5080746;27;87904;-55
2023/09/18 10:08:07;;;;;;;1.20;0.90;;;26.90;54.30;;;;;;5081369;27;88904;-55
2023/09/18 10:10:37;;;;;;;0.80;0.80;;;26.90;54.30;;;;;;5080956;27;87557;-55
2023/09/18 10:13:09;;;;;;;0.87;0.87;;;26.90;54.30;;;;;;5081843;27;89647;-55
2023/09/18 10:15:38;;;;;;;0.70;0.70;;;26.90;54.30;;;;;;5081857;27;89064;-58
2023/09/18 10:18:19;;;;;;;0.93;0.80;;;26.90;54.30;;;;;;5080958;27;88777;-58
2023/09/18 10:20:48;;;;;;;2.17;0.90;;;26.90;54.30;;;;;;5080474;27;89476;-57
2023/09/18 10:23:26;;;;;;;2.17;1.00;;;26.90;54.30;;;;;;5081240;27;88315;-57
2023/09/18 10:25:56;;;;;;;0.67;0.67;;;26.90;54.30;;;;;;5080959;27;89192;-59
2023/09/18 10:28:26;;;;;;;1.23;0.90;;;26.90;54.30;;;;;;5081222;27;89738;-57
2023/09/18 10:30:56;;;;;;;1.73;1.10;;;27.00;54.30;;;;;;5080971;27;87696;-57
2023/09/18 10:33:27;;;;;;;1.40;0.80;;;27.00;54.30;;;;;;5081108;27;88520;-57
2023/09/18 10:35:55;;;;;;;1.23;0.70;;;27.00;54.30;;;;;;5074859;27;89790;-56
2023/09/18 10:38:23;;;;;;;1.53;1.07;;;27.00;54.30;;;;;;5090478;27;88655;-56
2023/09/18 10:40:52;;;;;;;0.90;0.80;;;27.00;54.90;;;;;;5088291;27;87566;-56
2023/09/18 10:43:20;;;;;;;0.83;0.73;;;27.00;54.20;;;;;;5101351;27;89611;-57
2023/09/18 10:45:48;;;;;;;3.60;1.07;;;27.00;54.20;;;;;;5101084;27;90046;-57
2023/09/18 10:48:17;;;;;;;1.40;1.30;;;27.00;54.10;;;;;;5101994;27;89746;-56
2023/09/18 10:50:46;;;;;;;1.83;1.60;;;27.00;54.10;;;;;;5102011;27;87653;-56
2023/09/18 10:53:14;;;;;;;1.73;1.30;;;27.00;54.10;;;;;;5098089;27;89672;-57
2023/09/18 10:55:44;;;;;;;1.87;1.50;;;27.00;54.10;;;;;;5080937;27;89085;-57
2023/09/18 10:58:12;;;;;;;1.33;1.23;;;27.10;54.10;;;;;;5081037;27;89966;-57
2023/09/18 11:00:41;;;;;;;1.60;1.50;;;27.10;54.00;;;;;;5076390;27;87621;-56
2023/09/18 11:03:14;;;;;;;1.07;0.93;;;27.00;54.00;;;;;;5097740;27;89664;-56
2023/09/18 11:05:43;;;;;;;1.80;1.17;;;27.00;54.00;;;;;;5097497;27;89225;-56
2023/09/18 11:08:33;;;;;;;1.50;1.40;;;27.10;54.00;;;;;;5080494;27;88867;-56
2023/09/18 11:11:09;;;;;;;1.63;1.53;;;27.10;54.10;;;;;;5080132;27;87910;-56
2023/09/18 11:13:40;;;;;;;4.20;1.97;;;27.20;54.20;;;;;;5081105;27;88525;-59
2023/09/18 11:16:16;;;;;;;1.97;1.77;;;27.20;54.20;;;;;;5080940;27;89209;-60
2023/09/18 11:18:52;;;;;;;2.20;1.80;;;27.30;54.50;;;;;;5092196;27;88818;-58
2023/09/18 11:21:24;;;;;;;1.53;1.40;;;27.40;54.60;;;;;;5101909;27;87344;-63
2023/09/18 11:24:00;;;;;;;1.70;1.60;;;27.50;54.80;;;;;;5101323;27;89757;-56
2023/09/18 11:26:31;;;;;;;1.83;1.60;;;27.60;54.90;;;;;;5101479;27;89024;-56
2023/09/18 11:29:05;;;;;;;1.47;1.23;;;27.70;55.70;;;;;;5101536;27;87866;-57
2023/09/18 11:31:43;;;;;;;1.73;1.60;;;27.80;55.20;;;;;;5100548;27;87493;-59
2023/09/18 11:34:16;;;;;;;1.87;1.47;;;27.80;55.30;;;;;;5101297;27;89680;-61
2023/09/18 11:36:44;;;;;;;1.30;1.20;;;27.80;55.50;;;;;;5099774;27;90256;-56
2023/09/18 11:39:13;;;;;;;2.47;1.50;;;27.80;55.50;;;;;;5101041;27;89516;-56
2023/09/18 11:41:41;;;;;;;1.30;1.20;;;27.80;55.50;;;;;;5085358;27;87634;-56
2023/09/18 11:44:40;;;;;;;2.70;1.00;;;27.80;55.50;;;;;;5080278;27;88670;-60
2023/09/18 11:47:16;;;;;;;1.60;1.10;;;27.80;55.50;;;;;;5080494;27;89027;-52
2023/09/18 11:49:50;;;;;;;0.90;0.90;;;27.80;55.30;;;;;;5080623;27;88688;-54
2023/09/18 11:52:18;;;;;;;2.67;1.00;;;27.80;55.20;;;;;;5076517;27;87628;-52
2023/09/18 11:54:48;;;;;;;1.53;0.90;;;27.80;55.10;;;;;;5101071;27;89614;-52
2023/09/18 11:57:16;;;;;;;2.40;1.10;;;27.80;55.00;;;;;;5094482;27;89087;-52
2023/09/18 11:59:46;;;;;;;1.33;0.90;;;27.80;54.90;;;;;;5077934;27;88721;-52
2023/09/18 12:02:20;;;;;;;1.03;0.93;;;27.70;54.80;;;;;;5083141;27;88070;-52
2023/09/18 12:04:49;;;;;;;1.67;1.17;;;27.70;54.70;;;;;;5083750;27;88271;-52
2023/09/18 12:07:19;;;;;;;1.40;1.30;;;27.70;54.70;;;;;;5083264;27;89231;-53
2023/09/18 12:09:48;;;;;;;2.37;1.50;;;27.70;54.60;;;;;;5085967;27;88813;-52
2023/09/18 12:12:17;;;;;;;1.57;1.30;;;27.70;54.50;;;;;;5083576;27;87627;-52
2023/09/18 12:14:46;;;;;;;1.10;1.03;;;27.70;54.40;;;;;;5082935;27;89747;-52
2023/09/18 12:17:18;;;;;;;1.60;1.37;;;27.70;54.40;;;;;;5083353;27;88275;-52
2023/09/18 12:19:53;;;;;;;1.60;0.97;;;27.70;54.30;;;;;;5082830;27;88783;-53
2023/09/18 12:22:25;;;;;;;2.60;1.23;;;27.70;54.30;;;;;;5084164;27;87551;-52
2023/09/18 12:25:09;;;;;;;1.20;1.07;;;27.70;54.30;;;;;;5083691;27;89695;-53
2023/09/18 12:27:42;;;;;;;1.63;1.47;;;27.70;54.30;;;;;;5082918;27;90207;-52
2023/09/18 12:30:11;;;;;;;0.80;0.80;;;27.70;54.30;;;;;;5083494;27;89660;-53
2023/09/18 12:32:40;;;;;;;1.77;1.40;;;27.70;54.20;;;;;;5083081;27;87641;-52
2023/09/18 12:35:09;;;;;;;1.77;1.60;;;27.70;54.10;;;;;;5082990;27;89648;-52
2023/09/18 12:37:40;;;;;;;1.17;1.00;;;27.70;54.10;;;;;;5082473;27;87753;-52
2023/09/18 12:40:22;;;;;;;4.83;1.63;;;27.70;54.10;;;;;;5082190;27;88861;-52
2023/09/18 12:42:50;;;;;;;1.00;0.90;;;27.70;54.10;;;;;;5082896;27;87627;-52
2023/09/18 12:45:18;;;;;;;2.13;1.27;;;27.70;54.00;;;;;;5068668;27;89725;-52
2023/09/18 12:47:46;;;;;;;1.53;1.10;;;27.70;54.00;;;;;;5083856;27;89196;-52
2023/09/18 12:50:15;;;;;;;1.70;1.33;;;27.70;54.00;;;;;;5082159;27;88852;-52
2023/09/18 12:52:43;;;;;;;2.00;1.23;;;27.70;53.90;;;;;;5080724;27;88148;-52
2023/09/18 12:55:24;;;;;;;0.80;0.80;;;27.70;53.90;;;;;;5083212;27;88133;-52
2023/09/18 12:57:52;;;;;;;1.10;1.00;;;27.70;54.00;;;;;;5082746;27;89056;-52
2023/09/18 13:00:22;;;;;;;3.70;1.10;;;27.70;53.90;;;;;;5083142;27;88947;-52